createdAt,value
2016-09-12T00:00:11.736Z,1014.25
2016-09-12T00:00:52.534Z,1014.23
2016-09-12T00:01:33.356Z,1014.27
2016-09-12T00:02:14.220Z,1014.26
2016-09-12T00:02:54.982Z,1014.25
2016-09-12T00:03:35.778Z,1014.22
2016-09-12T00:04:16.631Z,1014.24
2016-09-12T00:04:57.393Z,1014.22
2016-09-12T00:05:38.246Z,1014.2
2016-09-12T00:06:18.967Z,1014.24
2016-09-12T00:06:59.697Z,1014.22
2016-09-12T00:07:40.406Z,1014.21
2016-09-12T00:08:21.152Z,1014.22
2016-09-12T00:09:02.137Z,1014.24
2016-09-12T00:09:42.749Z,1014.17
2016-09-12T00:10:23.483Z,1014.13
2016-09-12T00:11:04.225Z,1014.19
2016-09-12T00:11:44.992Z,1014.16
2016-09-12T00:12:25.823Z,1014.17
2016-09-12T00:13:06.570Z,1014.19
2016-09-12T00:13:47.373Z,1014.17
2016-09-12T00:14:28.157Z,1014.18
2016-09-12T00:15:08.943Z,1014.18
2016-09-12T00:15:49.680Z,1014.15
2016-09-12T00:16:30.558Z,1014.22
2016-09-12T00:17:11.369Z,1014.15
2016-09-12T00:17:52.093Z,1014.14
2016-09-12T00:18:32.897Z,1014.12
2016-09-12T00:19:13.643Z,1014.14
2016-09-12T00:19:54.422Z,1014.11
2016-09-12T00:20:35.131Z,1014.1
2016-09-12T00:21:15.911Z,1014.09
2016-09-12T00:21:56.632Z,1014.1
2016-09-12T00:22:37.360Z,1014.12
2016-09-12T00:23:18.133Z,1014.09
2016-09-12T00:23:58.905Z,1014.09
2016-09-12T00:24:39.712Z,1014.08
2016-09-12T00:25:20.498Z,1014.1
2016-09-12T00:26:01.306Z,1014.07
2016-09-12T00:26:42.069Z,1014.07
2016-09-12T00:27:22.799Z,1014.05
2016-09-12T00:28:03.573Z,1014.01
2016-09-12T00:28:44.309Z,1014.06
2016-09-12T00:29:25.094Z,1014.04
2016-09-12T00:30:05.831Z,1014.02
2016-09-12T00:30:46.727Z,1014.01
2016-09-12T00:31:27.466Z,1014.02
2016-09-12T00:32:08.279Z,1014.03
2016-09-12T00:32:49.051Z,1014.01
2016-09-12T00:33:29.855Z,1014.01
2016-09-12T00:34:10.595Z,1013.99
2016-09-12T00:34:51.406Z,1013.98
2016-09-12T00:35:32.665Z,1013.95
2016-09-12T00:36:13.406Z,1013.97
2016-09-12T00:36:54.162Z,1013.95
2016-09-12T00:37:34.938Z,1013.92
2016-09-12T00:38:15.815Z,1013.92
2016-09-12T00:38:56.436Z,1013.9
2016-09-12T00:39:37.153Z,1013.88
2016-09-12T00:40:17.935Z,1013.92
2016-09-12T00:40:59.108Z,1013.89
2016-09-12T00:41:39.847Z,1013.89
2016-09-12T00:42:20.600Z,1013.88
2016-09-12T00:43:01.311Z,1013.86
2016-09-12T00:43:42.083Z,1013.88
2016-09-12T00:44:22.814Z,1013.85
2016-09-12T00:45:03.551Z,1013.82
2016-09-12T00:45:44.290Z,1013.85
2016-09-12T00:46:25.000Z,1013.8
2016-09-12T00:47:05.692Z,1013.82
2016-09-12T00:47:46.470Z,1013.8
2016-09-12T00:48:27.223Z,1013.81
2016-09-12T00:49:07.986Z,1013.79
2016-09-12T00:49:48.808Z,1013.82
2016-09-12T00:50:29.555Z,1013.79
2016-09-12T00:51:10.365Z,1013.79
2016-09-12T00:51:51.114Z,1013.78
2016-09-12T00:52:31.863Z,1013.79
2016-09-12T00:53:12.701Z,1013.85
2016-09-12T00:53:53.581Z,1013.82
2016-09-12T00:54:34.331Z,1013.79
2016-09-12T00:55:15.079Z,1013.8
2016-09-12T00:55:55.789Z,1013.74
2016-09-12T00:56:36.532Z,1013.78
2016-09-12T00:57:17.270Z,1013.79
2016-09-12T00:57:58.022Z,1013.78
2016-09-12T00:58:38.834Z,1013.76
2016-09-12T00:59:19.564Z,1013.76
2016-09-12T01:00:00.303Z,1013.75
2016-09-12T01:00:41.219Z,1013.76
2016-09-12T01:01:21.950Z,1013.72
2016-09-12T01:02:02.715Z,1013.77
2016-09-12T01:02:43.424Z,1013.72
2016-09-12T01:03:24.189Z,1013.7
2016-09-12T01:04:05.002Z,1013.7
2016-09-12T01:04:45.727Z,1013.69
2016-09-12T01:05:26.485Z,1013.67
2016-09-12T01:06:07.246Z,1013.7
2016-09-12T01:06:48.016Z,1013.7
2016-09-12T01:07:28.846Z,1013.65
2016-09-12T01:08:09.610Z,1013.66
2016-09-12T01:08:50.467Z,1013.67
2016-09-12T01:09:31.204Z,1013.66
2016-09-12T01:10:12.050Z,1013.63
2016-09-12T01:10:52.771Z,1013.66
2016-09-12T01:11:33.502Z,1013.63
2016-09-12T01:12:14.253Z,1013.59
2016-09-12T01:12:55.054Z,1013.56
2016-09-12T01:13:35.758Z,1013.56
2016-09-12T01:14:16.526Z,1013.58
2016-09-12T01:14:57.231Z,1013.56
2016-09-12T01:15:38.154Z,1013.56
2016-09-12T01:16:18.934Z,1013.55
2016-09-12T01:16:59.697Z,1013.53
2016-09-12T01:17:40.667Z,1013.51
2016-09-12T01:18:21.419Z,1013.52
2016-09-12T01:19:02.247Z,1013.51
2016-09-12T01:19:42.951Z,1013.51
2016-09-12T01:20:23.785Z,1013.49
2016-09-12T01:21:04.603Z,1013.43
2016-09-12T01:21:45.416Z,1013.46
2016-09-12T01:22:26.177Z,1013.44
2016-09-12T01:23:06.928Z,1013.46
2016-09-12T01:23:47.726Z,1013.4
2016-09-12T01:24:28.461Z,1013.41
2016-09-12T01:25:09.237Z,1013.39
2016-09-12T01:25:49.984Z,1013.42
2016-09-12T01:26:30.764Z,1013.42
2016-09-12T01:27:11.565Z,1013.4
2016-09-12T01:27:52.361Z,1013.41
2016-09-12T01:28:33.153Z,1013.42
2016-09-12T01:29:13.932Z,1013.38
2016-09-12T01:29:54.729Z,1013.37
2016-09-12T01:30:35.487Z,1013.37
2016-09-12T01:31:16.529Z,1013.36
2016-09-12T01:31:57.278Z,1013.33
2016-09-12T01:32:38.224Z,1013.31
2016-09-12T01:33:19.058Z,1013.3
2016-09-12T01:33:59.791Z,1013.27
2016-09-12T01:34:40.695Z,1013.24
2016-09-12T01:35:21.481Z,1013.26
2016-09-12T01:36:02.288Z,1013.24
2016-09-12T01:36:43.015Z,1013.22
2016-09-12T01:37:23.795Z,1013.25
2016-09-12T01:38:04.545Z,1013.26
2016-09-12T01:38:45.286Z,1013.23
2016-09-12T01:39:26.042Z,1013.22
2016-09-12T01:40:06.803Z,1013.21
2016-09-12T01:40:47.558Z,1013.21
2016-09-12T01:41:28.320Z,1013.22
2016-09-12T01:42:09.100Z,1013.2
2016-09-12T01:42:49.896Z,1013.21
2016-09-12T01:43:30.781Z,1013.2
2016-09-12T01:44:11.541Z,1013.21
2016-09-12T01:44:52.288Z,1013.18
2016-09-12T01:45:33.084Z,1013.24
2016-09-12T01:46:13.864Z,1013.21
2016-09-12T01:46:54.610Z,1013.2
2016-09-12T01:47:35.376Z,1013.19
2016-09-12T01:48:16.204Z,1013.2
2016-09-12T01:48:57.004Z,1013.18
2016-09-12T01:49:37.860Z,1013.15
2016-09-12T01:50:18.660Z,1013.19
2016-09-12T01:50:59.426Z,1013.19
2016-09-12T01:51:40.268Z,1013.15
2016-09-12T01:52:21.001Z,1013.17
2016-09-12T01:53:01.938Z,1013.13
2016-09-12T01:53:42.804Z,1013.11
2016-09-12T01:54:23.581Z,1013.15
2016-09-12T01:55:04.377Z,1013.13
2016-09-12T01:55:45.139Z,1013.12
2016-09-12T01:56:26.151Z,1013.11
2016-09-12T01:57:06.904Z,1013.1
2016-09-12T01:57:47.759Z,1013.11
2016-09-12T01:58:28.495Z,1013.1
2016-09-12T01:59:09.377Z,1013.09
2016-09-12T01:59:50.104Z,1013.07
2016-09-12T02:00:30.837Z,1013.1
2016-09-12T02:01:11.541Z,1013.11
2016-09-12T02:01:52.260Z,1013.06
2016-09-12T02:02:33.155Z,1013.1
2016-09-12T02:03:13.853Z,1013.12
2016-09-12T02:03:54.621Z,1013.11
2016-09-12T02:04:35.483Z,1013.12
2016-09-12T02:05:16.249Z,1013.08
2016-09-12T02:05:56.970Z,1013.08
2016-09-12T02:06:37.763Z,1013.08
2016-09-12T02:07:18.502Z,1013.04
2016-09-12T02:07:59.302Z,1013.07
2016-09-12T02:08:40.056Z,1013.1
2016-09-12T02:09:20.992Z,1013.09
2016-09-12T02:10:02.551Z,1013.08
2016-09-12T02:10:43.111Z,1013.08
2016-09-12T02:11:23.932Z,1013.05
2016-09-12T02:12:04.746Z,1013.05
2016-09-12T02:12:45.472Z,1013.06
2016-09-12T02:13:26.236Z,1013.02
2016-09-12T02:14:07.045Z,1013.04
2016-09-12T02:14:47.794Z,1013.03
2016-09-12T02:15:28.621Z,1013.04
2016-09-12T02:16:09.378Z,1013.06
2016-09-12T02:16:50.126Z,1013.03
2016-09-12T02:17:30.896Z,1013.01
2016-09-12T02:18:11.643Z,1013.01
2016-09-12T02:18:52.512Z,1013.02
2016-09-12T02:19:33.275Z,1013
2016-09-12T02:20:14.011Z,1012.99
2016-09-12T02:20:54.737Z,1012.99
2016-09-12T02:21:35.526Z,1012.97
2016-09-12T02:22:16.306Z,1012.97
2016-09-12T02:22:57.209Z,1012.98
2016-09-12T02:23:37.975Z,1012.96
2016-09-12T02:24:18.728Z,1012.96
2016-09-12T02:24:59.491Z,1012.97
2016-09-12T02:25:40.291Z,1012.97
2016-09-12T02:26:21.055Z,1012.98
2016-09-12T02:27:01.815Z,1012.98
2016-09-12T02:27:42.552Z,1012.97
2016-09-12T02:28:23.326Z,1012.96
2016-09-12T02:29:04.222Z,1012.93
2016-09-12T02:29:44.956Z,1012.95
2016-09-12T02:30:25.701Z,1012.95
2016-09-12T02:31:06.511Z,1012.91
2016-09-12T02:31:47.314Z,1012.93
2016-09-12T02:32:28.081Z,1012.95
2016-09-12T02:33:08.849Z,1012.91
2016-09-12T02:33:49.644Z,1012.93
2016-09-12T02:34:30.391Z,1012.95
2016-09-12T02:35:11.126Z,1012.93
2016-09-12T02:35:51.875Z,1012.93
2016-09-12T02:36:32.636Z,1012.94
2016-09-12T02:37:13.395Z,1012.94
2016-09-12T02:37:54.206Z,1012.94
2016-09-12T02:38:34.997Z,1012.92
2016-09-12T02:39:15.790Z,1012.95
2016-09-12T02:39:56.543Z,1012.95
2016-09-12T02:40:37.931Z,1012.94
2016-09-12T02:41:18.676Z,1012.94
2016-09-12T02:41:59.439Z,1012.96
2016-09-12T02:42:40.244Z,1012.91
2016-09-12T02:43:20.993Z,1012.93
2016-09-12T02:44:01.890Z,1012.93
2016-09-12T02:44:42.642Z,1012.9
2016-09-12T02:45:23.401Z,1012.92
2016-09-12T02:46:04.121Z,1012.89
2016-09-12T02:46:44.917Z,1012.92
2016-09-12T02:47:25.687Z,1012.87
2016-09-12T02:48:06.461Z,1012.87
2016-09-12T02:48:47.254Z,1012.87
2016-09-12T02:49:28.031Z,1012.86
2016-09-12T02:50:08.761Z,1012.84
2016-09-12T02:50:49.605Z,1012.83
2016-09-12T02:51:30.378Z,1012.82
2016-09-12T02:52:11.175Z,1012.85
2016-09-12T02:52:51.920Z,1012.81
2016-09-12T02:53:32.735Z,1012.82
2016-09-12T02:54:13.583Z,1012.82
2016-09-12T02:54:54.353Z,1012.8
2016-09-12T02:55:35.138Z,1012.79
2016-09-12T02:56:15.921Z,1012.79
2016-09-12T02:56:56.684Z,1012.77
2016-09-12T02:57:37.473Z,1012.78
2016-09-12T02:58:18.176Z,1012.75
2016-09-12T02:58:58.912Z,1012.71
2016-09-12T02:59:39.667Z,1012.75
2016-09-12T03:00:20.419Z,1012.73
2016-09-12T03:01:01.214Z,1012.75
2016-09-12T03:01:41.990Z,1012.72
2016-09-12T03:02:22.744Z,1012.7
2016-09-12T03:03:03.596Z,1012.71
2016-09-12T03:03:44.319Z,1012.69
2016-09-12T03:04:25.112Z,1012.69
2016-09-12T03:05:05.859Z,1012.69
2016-09-12T03:05:46.649Z,1012.73
2016-09-12T03:06:27.455Z,1012.7
2016-09-12T03:07:08.204Z,1012.73
2016-09-12T03:07:48.928Z,1012.69
2016-09-12T03:08:29.700Z,1012.7
2016-09-12T03:09:10.516Z,1012.69
2016-09-12T03:09:51.267Z,1012.7
2016-09-12T03:10:33.335Z,1012.68
2016-09-12T03:11:14.061Z,1012.68
2016-09-12T03:11:54.785Z,1012.67
2016-09-12T03:12:35.566Z,1012.68
2016-09-12T03:13:16.347Z,1012.65
2016-09-12T03:13:57.085Z,1012.7
2016-09-12T03:14:38.123Z,1012.64
2016-09-12T03:15:18.850Z,1012.62
2016-09-12T03:15:59.619Z,1012.64
2016-09-12T03:16:40.449Z,1012.62
2016-09-12T03:17:21.185Z,1012.63
2016-09-12T03:18:01.922Z,1012.61
2016-09-12T03:18:42.731Z,1012.62
2016-09-12T03:19:23.511Z,1012.61
2016-09-12T03:20:04.493Z,1012.6
2016-09-12T03:20:45.117Z,1012.6
2016-09-12T03:21:25.863Z,1012.58
2016-09-12T03:22:06.686Z,1012.61
2016-09-12T03:22:47.394Z,1012.57
2016-09-12T03:23:28.156Z,1012.58
2016-09-12T03:24:09.011Z,1012.57
2016-09-12T03:24:49.790Z,1012.56
2016-09-12T03:25:30.560Z,1012.6
2016-09-12T03:26:11.633Z,1012.58
2016-09-12T03:26:52.259Z,1012.56
2016-09-12T03:27:33.038Z,1012.59
2016-09-12T03:28:13.817Z,1012.55
2016-09-12T03:28:54.549Z,1012.58
2016-09-12T03:29:35.256Z,1012.54
2016-09-12T03:30:16.054Z,1012.58
2016-09-12T03:30:56.842Z,1012.6
2016-09-12T03:31:37.830Z,1012.59
2016-09-12T03:32:18.531Z,1012.54
2016-09-12T03:32:59.249Z,1012.59
2016-09-12T03:33:40.082Z,1012.56
2016-09-12T03:34:20.910Z,1012.56
2016-09-12T03:35:01.681Z,1012.57
2016-09-12T03:35:42.409Z,1012.59
2016-09-12T03:36:23.209Z,1012.55
2016-09-12T03:37:04.054Z,1012.58
2016-09-12T03:37:44.789Z,1012.56
2016-09-12T03:38:25.557Z,1012.54
2016-09-12T03:39:06.275Z,1012.53
2016-09-12T03:39:47.057Z,1012.54
2016-09-12T03:40:27.849Z,1012.58
2016-09-12T03:41:08.573Z,1012.51
2016-09-12T03:41:49.294Z,1012.55
2016-09-12T03:42:30.108Z,1012.53
2016-09-12T03:43:10.884Z,1012.53
2016-09-12T03:43:51.635Z,1012.52
2016-09-12T03:44:32.400Z,1012.5
2016-09-12T03:45:13.118Z,1012.53
2016-09-12T03:45:53.850Z,1012.52
2016-09-12T03:46:34.688Z,1012.51
2016-09-12T03:47:15.603Z,1012.48
2016-09-12T03:47:56.350Z,1012.51
2016-09-12T03:48:37.155Z,1012.51
2016-09-12T03:49:17.929Z,1012.51
2016-09-12T03:49:58.652Z,1012.52
2016-09-12T03:50:39.393Z,1012.53
2016-09-12T03:51:20.143Z,1012.52
2016-09-12T03:52:01.224Z,1012.53
2016-09-12T03:52:41.957Z,1012.52
2016-09-12T03:53:22.731Z,1012.53
2016-09-12T03:54:03.515Z,1012.54
2016-09-12T03:54:44.338Z,1012.53
2016-09-12T03:55:25.146Z,1012.53
2016-09-12T03:56:05.886Z,1012.54
2016-09-12T03:56:46.754Z,1012.51
2016-09-12T03:57:27.515Z,1012.54
2016-09-12T03:58:08.577Z,1012.51
2016-09-12T03:58:49.397Z,1012.52
2016-09-12T03:59:30.180Z,1012.52
2016-09-12T04:00:10.912Z,1012.49
2016-09-12T04:00:51.658Z,1012.52
2016-09-12T04:01:32.450Z,1012.51
2016-09-12T04:02:13.684Z,1012.46
2016-09-12T04:02:54.452Z,1012.45
2016-09-12T04:03:35.178Z,1012.47
2016-09-12T04:04:16.025Z,1012.47
2016-09-12T04:04:56.757Z,1012.48
2016-09-12T04:05:38.255Z,1012.46
2016-09-12T04:06:19.005Z,1012.43
2016-09-12T04:06:59.757Z,1012.48
2016-09-12T04:07:40.517Z,1012.44
2016-09-12T04:08:21.267Z,1012.43
2016-09-12T04:09:02.028Z,1012.46
2016-09-12T04:09:42.804Z,1012.46
2016-09-12T04:10:24.768Z,1012.48
2016-09-12T04:11:05.386Z,1012.48
2016-09-12T04:11:46.126Z,1012.49
2016-09-12T04:12:26.931Z,1012.48
2016-09-12T04:13:07.682Z,1012.48
2016-09-12T04:13:48.468Z,1012.49
2016-09-12T04:14:29.249Z,1012.48
2016-09-12T04:15:10.253Z,1012.55
2016-09-12T04:15:51.294Z,1012.49
2016-09-12T04:16:32.036Z,1012.5
2016-09-12T04:17:12.831Z,1012.48
2016-09-12T04:17:53.788Z,1012.47
2016-09-12T04:18:34.823Z,1012.52
2016-09-12T04:19:15.346Z,1012.52
2016-09-12T04:19:56.032Z,1012.47
2016-09-12T04:20:36.843Z,1012.52
2016-09-12T04:21:17.592Z,1012.5
2016-09-12T04:21:58.334Z,1012.5
2016-09-12T04:22:39.134Z,1012.5
2016-09-12T04:23:20.008Z,1012.48
2016-09-12T04:24:00.754Z,1012.46
2016-09-12T04:24:41.605Z,1012.51
2016-09-12T04:25:22.492Z,1012.5
2016-09-12T04:26:03.263Z,1012.49
2016-09-12T04:26:44.096Z,1012.48
2016-09-12T04:27:24.849Z,1012.49
2016-09-12T04:28:05.598Z,1012.47
2016-09-12T04:28:46.317Z,1012.5
2016-09-12T04:29:27.060Z,1012.41
2016-09-12T04:30:07.834Z,1012.44
2016-09-12T04:30:48.581Z,1012.43
2016-09-12T04:31:29.335Z,1012.43
2016-09-12T04:32:10.111Z,1012.43
2016-09-12T04:32:50.888Z,1012.4
2016-09-12T04:33:31.628Z,1012.42
2016-09-12T04:34:12.389Z,1012.42
2016-09-12T04:34:54.657Z,1012.38
2016-09-12T04:35:35.409Z,1012.38
2016-09-12T04:36:16.187Z,1012.36
2016-09-12T04:36:56.986Z,1012.38
2016-09-12T04:37:37.749Z,1012.36
2016-09-12T04:38:18.506Z,1012.35
2016-09-12T04:38:59.328Z,1012.33
2016-09-12T04:39:40.145Z,1012.27
2016-09-12T04:40:20.926Z,1012.33
2016-09-12T04:41:01.685Z,1012.35
2016-09-12T04:41:42.450Z,1012.32
2016-09-12T04:42:23.150Z,1012.32
2016-09-12T04:43:03.912Z,1012.32
2016-09-12T04:43:44.966Z,1012.31
2016-09-12T04:44:25.466Z,1012.3
2016-09-12T04:45:06.204Z,1012.3
2016-09-12T04:45:47.083Z,1012.36
2016-09-12T04:46:27.907Z,1012.36
2016-09-12T04:47:08.692Z,1012.35
2016-09-12T04:47:49.456Z,1012.37
2016-09-12T04:48:30.189Z,1012.37
2016-09-12T04:49:10.964Z,1012.41
2016-09-12T04:49:51.774Z,1012.4
2016-09-12T04:50:32.750Z,1012.4
2016-09-12T04:51:13.531Z,1012.4
2016-09-12T04:51:54.267Z,1012.43
2016-09-12T04:52:35.010Z,1012.46
2016-09-12T04:53:16.045Z,1012.44
2016-09-12T04:53:56.810Z,1012.46
2016-09-12T04:54:37.608Z,1012.46
2016-09-12T04:55:18.519Z,1012.46
2016-09-12T04:55:59.247Z,1012.43
2016-09-12T04:56:40.127Z,1012.46
2016-09-12T04:57:20.998Z,1012.48
2016-09-12T04:58:01.859Z,1012.47
2016-09-12T04:58:42.599Z,1012.46
2016-09-12T04:59:23.303Z,1012.52
2016-09-12T05:00:04.099Z,1012.49
2016-09-12T05:00:44.888Z,1012.54
2016-09-12T05:01:25.742Z,1012.51
2016-09-12T05:02:06.516Z,1012.48
2016-09-12T05:02:47.331Z,1012.51
2016-09-12T05:03:28.070Z,1012.53
2016-09-12T05:04:09.219Z,1012.5
2016-09-12T05:04:49.753Z,1012.5
2016-09-12T05:05:30.440Z,1012.52
2016-09-12T05:06:11.270Z,1012.52
2016-09-12T05:06:52.050Z,1012.5
2016-09-12T05:07:32.823Z,1012.53
2016-09-12T05:08:13.582Z,1012.52
2016-09-12T05:08:54.353Z,1012.52
2016-09-12T05:09:35.168Z,1012.55
2016-09-12T05:10:15.951Z,1012.56
2016-09-12T05:10:56.721Z,1012.56
2016-09-12T05:11:37.515Z,1012.59
2016-09-12T05:12:18.328Z,1012.6
2016-09-12T05:12:59.029Z,1012.62
2016-09-12T05:13:39.894Z,1012.63
2016-09-12T05:14:20.694Z,1012.64
2016-09-12T05:15:02.348Z,1012.67
2016-09-12T05:15:43.040Z,1012.65
2016-09-12T05:16:23.794Z,1012.66
2016-09-12T05:17:04.538Z,1012.69
2016-09-12T05:17:45.321Z,1012.63
2016-09-12T05:18:26.081Z,1012.66
2016-09-12T05:19:07.028Z,1012.7
2016-09-12T05:19:47.771Z,1012.66
2016-09-12T05:20:28.551Z,1012.67
2016-09-12T05:21:09.291Z,1012.67
2016-09-12T05:21:50.074Z,1012.67
2016-09-12T05:22:30.789Z,1012.67
2016-09-12T05:23:11.564Z,1012.67
2016-09-12T05:23:52.303Z,1012.68
2016-09-12T05:24:33.076Z,1012.64
2016-09-12T05:25:13.855Z,1012.68
2016-09-12T05:25:54.590Z,1012.66
2016-09-12T05:26:35.536Z,1012.69
2016-09-12T05:27:16.295Z,1012.67
2016-09-12T05:27:57.014Z,1012.7
2016-09-12T05:28:37.791Z,1012.69
2016-09-12T05:29:18.498Z,1012.74
2016-09-12T05:29:59.222Z,1012.74
2016-09-12T05:30:40.521Z,1012.75
2016-09-12T05:31:21.368Z,1012.74
2016-09-12T05:32:02.179Z,1012.76
2016-09-12T05:32:42.939Z,1012.75
2016-09-12T05:33:23.724Z,1012.78
2016-09-12T05:34:04.491Z,1012.79
2016-09-12T05:34:45.235Z,1012.77
2016-09-12T05:35:26.295Z,1012.77
2016-09-12T05:36:07.282Z,1012.79
2016-09-12T05:36:48.370Z,1012.75
2016-09-12T05:37:29.237Z,1012.77
2016-09-12T05:38:10.125Z,1012.8
2016-09-12T05:38:50.807Z,1012.77
2016-09-12T05:39:31.559Z,1012.82
2016-09-12T05:40:12.456Z,1012.78
2016-09-12T05:40:53.447Z,1012.81
2016-09-12T05:41:34.285Z,1012.78
2016-09-12T05:42:15.020Z,1012.78
2016-09-12T05:42:55.798Z,1012.82
2016-09-12T05:43:36.700Z,1012.8
2016-09-12T05:44:19.376Z,1012.79
2016-09-12T05:44:59.689Z,1012.82
2016-09-12T05:45:41.579Z,1012.82
2016-09-12T05:46:22.012Z,1012.83
2016-09-12T05:47:02.922Z,1012.82
2016-09-12T05:47:43.782Z,1012.85
2016-09-12T05:48:24.542Z,1012.85
2016-09-12T05:49:05.314Z,1012.84
2016-09-12T05:49:46.090Z,1012.89
2016-09-12T05:50:26.952Z,1012.87
2016-09-12T05:51:07.719Z,1012.85
2016-09-12T05:51:48.566Z,1012.81
2016-09-12T05:52:29.488Z,1012.86
2016-09-12T05:53:10.264Z,1012.84
2016-09-12T05:53:50.987Z,1012.88
2016-09-12T05:54:31.955Z,1012.87
2016-09-12T05:55:12.794Z,1012.87
2016-09-12T05:55:53.643Z,1012.85
2016-09-12T05:56:34.499Z,1012.8
2016-09-12T05:57:15.267Z,1012.83
2016-09-12T05:57:56.039Z,1012.86
2016-09-12T05:58:37.165Z,1012.83
2016-09-12T05:59:17.966Z,1012.87
2016-09-12T05:59:58.759Z,1012.88
2016-09-12T06:00:39.563Z,1012.84
2016-09-12T06:01:20.429Z,1012.88
2016-09-12T06:02:01.448Z,1012.91
2016-09-12T06:02:42.186Z,1012.91
2016-09-12T06:03:22.956Z,1012.97
2016-09-12T06:04:03.892Z,1012.94
2016-09-12T06:04:44.723Z,1012.96
2016-09-12T06:05:25.919Z,1012.96
2016-09-12T06:06:06.648Z,1012.97
2016-09-12T06:06:47.447Z,1012.99
2016-09-12T06:07:28.277Z,1012.92
2016-09-12T06:08:09.381Z,1012.94
2016-09-12T06:08:50.219Z,1013
2016-09-12T06:09:40.591Z,1013
2016-09-12T06:11:26.857Z,1012.96
2016-09-12T06:12:07.980Z,1012.96
2016-09-12T06:12:53.750Z,1012.98
2016-09-12T06:13:35.842Z,1012.95
2016-09-12T06:14:17.747Z,1012.96
2016-09-12T06:14:58.614Z,1012.96
2016-09-12T06:15:40.451Z,1013
2016-09-12T06:16:21.238Z,1012.97
2016-09-12T06:17:02.090Z,1012.98
2016-09-12T06:17:42.867Z,1012.99
2016-09-12T06:18:23.577Z,1012.98
2016-09-12T06:19:06.119Z,1013.04
2016-09-12T06:19:47.085Z,1013.01
2016-09-12T06:20:40.117Z,1013.06
2016-09-12T06:21:22.583Z,1013.01
2016-09-12T06:23:07.540Z,1013.02
2016-09-12T06:25:47.751Z,1013.02
2016-09-12T06:26:28.605Z,1013.06
2016-09-12T06:27:09.751Z,1013.08
2016-09-12T06:27:50.519Z,1013.05
2016-09-12T06:28:31.265Z,1013.03
2016-09-12T06:29:12.038Z,1013.07
2016-09-12T06:29:52.805Z,1013.08
2016-09-12T06:30:33.535Z,1013.09
2016-09-12T06:31:14.350Z,1013.05
2016-09-12T06:31:55.157Z,1013.06
2016-09-12T06:32:35.938Z,1013.08
2016-09-12T06:33:16.690Z,1013.07
2016-09-12T06:33:57.464Z,1013.07
2016-09-12T06:34:38.175Z,1013.06
2016-09-12T06:35:18.942Z,1013.07
2016-09-12T06:35:59.721Z,1013.07
2016-09-12T06:36:40.506Z,1013.09
2016-09-12T06:37:21.276Z,1013.1
2016-09-12T06:38:02.056Z,1013.07
2016-09-12T06:38:42.834Z,1013.09
2016-09-12T06:39:23.599Z,1013.08
2016-09-12T06:40:04.465Z,1013.09
2016-09-12T06:40:52.235Z,1013.07
2016-09-12T06:42:28.578Z,1013.07
2016-09-12T07:04:08.430Z,1013.09
2016-09-12T07:11:48.196Z,1013.13
2016-09-12T07:30:58.842Z,1013.11
2016-09-12T07:30:59.570Z,1013.12
